Time;durP1;ratioP1;P1;durP2;ratioP2;P2;SDS_P1;SDS_P2;PMS_P1;PMS_P2;Temp;Humidity;BMP_temperature;BMP_pressure;BME280_temperature;BME280_humidity;BME280_pressure;Samples;Min_cycle;Max_cycle;Signal;HPM_P1;HPM_P2
2021/06/25 00:00:56;;;;;;;;;20.50;18.00;;;;;14.77;64.24;101889.22;4989301;28;45506;-65
2021/06/25 00:03:22;;;;;;;;;20.25;19.00;;;;;14.74;64.95;101886.03;4988530;28;45406;-65
2021/06/25 00:05:47;;;;;;;;;18.75;16.00;;;;;14.71;65.41;101892.50;4988104;28;45545;-69
2021/06/25 00:08:13;;;;;;;;;22.00;19.75;;;;;14.68;65.37;101881.28;4986550;28;48382;-67
2021/06/25 00:10:38;;;;;;;;;20.50;18.00;;;;;14.65;65.68;101886.91;4988054;28;45931;-65
2021/06/25 00:13:04;;;;;;;;;22.50;19.25;;;;;14.60;65.87;101887.34;4989726;28;45679;-66
2021/06/25 00:15:30;;;;;;;;;26.00;20.75;;;;;14.55;65.83;101876.31;4984372;28;45462;-67
2021/06/25 00:17:58;;;;;;;;;20.75;20.00;;;;;14.53;66.12;101878.25;4989952;28;46295;-62
2021/06/25 00:20:24;;;;;;;;;19.75;19.25;;;;;14.50;66.44;101870.59;4993569;28;45664;-69
2021/06/25 00:22:49;;;;;;;;;22.75;21.75;;;;;14.47;66.68;101871.72;4994215;28;45635;-65
2021/06/25 00:25:15;;;;;;;;;20.75;16.75;;;;;14.45;66.67;101867.53;4996416;28;45422;-63
2021/06/25 00:27:40;;;;;;;;;23.50;20.50;;;;;14.42;66.70;101871.31;4985882;28;45609;-64
2021/06/25 00:30:06;;;;;;;;;24.75;20.50;;;;;14.40;67.64;101870.63;4989931;28;45654;-66
2021/06/25 00:32:32;;;;;;;;;25.00;21.50;;;;;14.38;68.34;101872.59;4989854;28;45552;-68
2021/06/25 00:34:57;;;;;;;;;25.25;20.00;;;;;14.37;68.45;101866.44;4990578;28;45617;-65
2021/06/25 00:37:22;;;;;;;;;23.75;19.00;;;;;14.36;68.93;101867.41;5004639;28;45479;-63
2021/06/25 00:39:48;;;;;;;;;20.75;20.25;;;;;14.35;68.42;101862.25;4988107;28;45371;-66
2021/06/25 00:42:13;;;;;;;;;22.50;19.00;;;;;14.33;69.12;101861.56;4995891;28;45553;-65
2021/06/25 00:44:40;;;;;;;;;20.50;18.75;;;;;14.32;68.86;101858.06;4990361;28;46566;-63
2021/06/25 00:47:07;;;;;;;;;24.00;21.00;;;;;14.30;69.17;101859.19;5000586;28;48069;-64
2021/06/25 00:49:32;;;;;;;;;23.00;19.75;;;;;14.27;69.24;101863.00;5002525;28;45527;-66
2021/06/25 00:51:57;;;;;;;;;23.00;19.50;;;;;14.26;70.14;101853.31;4990825;28;45812;-67
2021/06/25 00:54:23;;;;;;;;;22.00;17.75;;;;;14.25;70.01;101851.66;4995202;28;45500;-63
2021/06/25 00:56:48;;;;;;;;;26.75;20.75;;;;;14.23;70.21;101850.97;4991666;28;46106;-63
2021/06/25 00:59:14;;;;;;;;;23.75;23.25;;;;;14.21;70.72;101847.59;4998384;28;45525;-66
2021/06/25 01:01:39;;;;;;;;;22.25;20.25;;;;;14.20;70.71;101845.94;4993860;28;52585;-66
2021/06/25 01:04:05;;;;;;;;;19.75;19.00;;;;;14.18;70.01;101843.41;4998863;28;45685;-69
2021/06/25 01:06:31;;;;;;;;;25.50;21.00;;;;;14.15;70.09;101841.06;5001422;28;46148;-68
2021/06/25 01:08:57;;;;;;;;;22.75;20.00;;;;;14.13;70.76;101840.34;4992063;28;45715;-65
2021/06/25 01:11:22;;;;;;;;;23.25;20.75;;;;;14.12;70.14;101840.50;4992345;28;45640;-69
2021/06/25 01:13:48;;;;;;;;;26.00;24.00;;;;;14.10;70.32;101839.81;4994162;28;45778;-63
2021/06/25 01:16:14;;;;;;;;;25.75;23.25;;;;;14.08;70.88;101837.28;4995952;28;46120;-62
2021/06/25 01:18:39;;;;;;;;;25.25;22.75;;;;;14.07;71.10;101834.78;4993431;28;45687;-62
2021/06/25 01:21:05;;;;;;;;;29.50;27.50;;;;;14.04;70.74;101837.72;4995637;28;45398;-64
2021/06/25 01:23:35;;;;;;;;;25.00;21.50;;;;;14.01;71.14;101833.53;4985220;28;45503;-62
2021/06/25 01:26:01;;;;;;;;;25.25;21.25;;;;;13.98;71.22;101834.66;4992232;28;45448;-62
2021/06/25 01:28:26;;;;;;;;;23.75;22.75;;;;;13.96;70.46;101830.47;4993711;28;45525;-64
2021/06/25 01:30:51;;;;;;;;;26.50;22.25;;;;;13.92;71.37;101824.63;4994400;28;45340;-66
2021/06/25 01:33:19;;;;;;;;;25.75;20.75;;;;;13.90;70.70;101823.94;4996416;28;45493;-62
2021/06/25 01:35:45;;;;;;;;;26.00;22.25;;;;;13.88;71.21;101825.06;4989411;28;45469;-65
2021/06/25 01:38:12;;;;;;;;;26.00;21.25;;;;;13.86;71.53;101827.03;4988810;28;45542;-68
2021/06/25 01:40:39;;;;;;;;;27.00;20.25;;;;;13.82;71.35;101825.63;4991431;28;45593;-67
2021/06/25 01:43:09;;;;;;;;;26.50;21.50;;;;;13.80;71.44;101823.13;4990023;28;45789;-68
2021/06/25 01:45:36;;;;;;;;;19.75;16.25;;;;;13.77;71.20;101818.94;4991094;28;45967;-62
2021/06/25 01:48:03;;;;;;;;;24.50;21.25;;;;;13.75;71.79;101820.06;4985996;28;45561;-66
2021/06/25 01:50:36;;;;;;;;;24.50;21.25;;;;;13.72;71.47;101817.69;4988124;28;45820;-68
2021/06/25 01:53:03;;;;;;;;;25.25;19.25;;;;;13.70;71.38;101814.34;4987861;28;45735;-65
2021/06/25 01:55:39;;;;;;;;;23.25;18.00;;;;;13.68;72.54;101822.44;5001511;28;47469;-65
2021/06/25 01:58:08;;;;;;;;;25.75;24.50;;;;;13.66;72.80;101820.91;5004016;28;45923;-67
2021/06/25 02:00:35;;;;;;;;;24.75;22.00;;;;;13.65;73.13;101817.44;4999263;28;45499;-68
2021/06/25 02:03:00;;;;;;;;;21.75;20.75;;;;;13.65;73.76;101813.91;4982316;28;45559;-64
2021/06/25 02:05:25;;;;;;;;;29.75;23.50;;;;;13.64;73.42;101822.88;4989882;28;47018;-63
2021/06/25 02:07:51;;;;;;;;;23.25;21.00;;;;;13.63;73.87;101815.91;4991847;28;45856;-64
2021/06/25 02:10:16;;;;;;;;;21.75;18.00;;;;;13.62;73.47;101814.22;4990684;28;45725;-69
2021/06/25 02:12:41;;;;;;;;;27.50;22.25;;;;;13.60;73.43;101810.84;4992263;28;46006;-65
2021/06/25 02:15:09;;;;;;;;;24.50;23.00;;;;;13.57;74.07;101804.00;4992045;28;47057;-64
2021/06/25 02:17:34;;;;;;;;;21.25;18.00;;;;;13.54;74.49;101802.47;4996091;28;45751;-66
2021/06/25 02:20:00;;;;;;;;;25.50;22.25;;;;;13.53;74.76;101800.81;4988600;28;45466;-68
2021/06/25 02:22:25;;;;;;;;;22.75;18.50;;;;;13.51;74.87;101791.31;4993721;28;45576;-64
2021/06/25 02:24:51;;;;;;;;;21.50;18.25;;;;;13.48;73.82;101786.28;4999798;28;45300;-64
2021/06/25 02:27:16;;;;;;;;;26.00;21.00;;;;;13.44;74.61;101788.38;4989810;28;45485;-65
2021/06/25 02:29:41;;;;;;;;;24.75;23.00;;;;;13.42;74.63;101779.72;4992588;28;45468;-63
2021/06/25 02:32:07;;;;;;;;;21.50;17.75;;;;;13.41;74.21;101785.19;4987341;28;45557;-69
2021/06/25 02:34:32;;;;;;;;;23.00;19.00;;;;;13.40;74.64;101783.50;4993030;28;46172;-65
2021/06/25 02:36:58;;;;;;;;;20.00;17.50;;;;;13.39;73.87;101779.19;5010700;28;45486;-69
2021/06/25 02:39:24;;;;;;;;;24.25;20.00;;;;;13.35;73.47;101775.94;4993752;28;45680;-68
2021/06/25 02:41:49;;;;;;;;;20.75;18.50;;;;;13.33;73.90;101777.94;4984017;28;45563;-66
2021/06/25 02:44:15;;;;;;;;;21.25;18.75;;;;;13.29;74.11;101776.53;4984728;28;45415;-64
2021/06/25 02:46:41;;;;;;;;;25.50;21.25;;;;;13.30;74.38;101784.38;4990808;28;45669;-65
2021/06/25 02:49:06;;;;;;;;;23.25;20.25;;;;;13.27;74.16;101778.50;4997594;28;45470;-64
2021/06/25 02:51:31;;;;;;;;;22.50;19.00;;;;;13.26;74.76;101777.63;4992943;28;45302;-71
2021/06/25 02:53:57;;;;;;;;;26.25;18.00;;;;;13.25;74.04;101780.41;5006718;28;47486;-65
2021/06/25 02:56:22;;;;;;;;;23.75;21.25;;;;;13.21;74.79;101777.22;4992395;28;45391;-65
2021/06/25 02:58:47;;;;;;;;;21.50;17.75;;;;;13.20;75.13;101778.16;4988948;28;45440;-67
2021/06/25 03:01:13;;;;;;;;;21.00;17.25;;;;;13.19;73.95;101773.03;5000545;28;45532;-63
2021/06/25 03:03:38;;;;;;;;;24.75;21.00;;;;;13.13;74.95;101769.97;5011101;28;45426;-70
2021/06/25 03:06:04;;;;;;;;;26.25;22.25;;;;;13.13;74.76;101771.78;4986661;28;45561;-67
2021/06/25 03:08:30;;;;;;;;;26.75;20.00;;;;;13.11;74.71;101769.25;4989567;28;45500;-64
2021/06/25 03:10:55;;;;;;;;;21.75;19.25;;;;;13.11;74.64;101766.59;4990375;28;45442;-69
2021/06/25 03:13:22;;;;;;;;;20.75;17.25;;;;;13.11;74.57;101773.72;4990415;28;47171;-71
2021/06/25 03:15:48;;;;;;;;;26.75;20.75;;;;;13.10;74.40;101770.25;4999743;28;45584;-70
2021/06/25 03:18:15;;;;;;;;;29.75;22.50;;;;;13.08;74.55;101771.34;4984110;28;45602;-68
2021/06/25 03:20:41;;;;;;;;;23.00;20.50;;;;;13.05;74.98;101768.97;4993308;28;45437;-68
2021/06/25 03:23:07;;;;;;;;;22.25;18.75;;;;;13.03;74.91;101771.78;4993136;28;45453;-67
2021/06/25 03:25:33;;;;;;;;;24.50;20.75;;;;;13.02;75.25;101769.25;4991462;28;46376;-63
2021/06/25 03:27:59;;;;;;;;;25.50;22.00;;;;;13.01;75.38;101763.13;4991090;28;45570;-63
2021/06/25 03:30:24;;;;;;;;;25.75;22.25;;;;;13.02;75.32;101764.78;4989959;28;45498;-67
2021/06/25 03:32:50;;;;;;;;;22.25;19.50;;;;;13.01;75.71;101773.72;4992723;28;45539;-64
2021/06/25 03:35:15;;;;;;;;;23.75;17.50;;;;;13.01;75.25;101770.25;4986536;28;45530;-67
2021/06/25 03:37:40;;;;;;;;;24.75;23.00;;;;;13.02;75.14;101766.59;4993144;28;45346;-66
2021/06/25 03:40:09;;;;;;;;;30.00;20.25;;;;;13.01;75.17;101763.13;4991331;28;45657;-62
2021/06/25 03:42:35;;;;;;;;;20.75;19.00;;;;;13.01;75.17;101770.25;5004936;28;47340;-66
2021/06/25 03:45:00;;;;;;;;;23.75;18.25;;;;;13.00;75.49;101768.56;4991068;28;55341;-66
2021/06/25 03:47:26;;;;;;;;;22.25;19.50;;;;;13.00;75.11;101772.03;4991839;28;45438;-63
2021/06/25 03:49:51;;;;;;;;;25.50;20.75;;;;;13.00;75.30;101772.03;4992062;28;45417;-66
2021/06/25 03:52:16;;;;;;;;;28.00;21.25;;;;;13.01;76.12;101776.38;4993626;28;46020;-66
2021/06/25 03:54:43;;;;;;;;;23.25;21.25;;;;;13.03;75.00;101773.56;4992874;28;45635;-68
2021/06/25 03:57:08;;;;;;;;;20.50;19.00;;;;;13.03;75.23;101771.78;4988085;28;45993;-66
2021/06/25 03:59:33;;;;;;;;;31.25;22.50;;;;;13.05;75.73;101764.50;4986489;28;45728;-65
2021/06/25 04:01:59;;;;;;;;;23.75;20.25;;;;;13.08;75.78;101764.22;4986763;28;47153;-65
2021/06/25 04:04:24;;;;;;;;;21.00;20.50;;;;;13.12;74.87;101770.91;4982227;28;45391;-67
2021/06/25 04:06:49;;;;;;;;;27.75;23.75;;;;;13.13;74.53;101764.66;4993991;28;45565;-65
2021/06/25 04:09:15;;;;;;;;;20.50;20.50;;;;;13.13;74.28;101762.00;4993450;28;45494;-68
2021/06/25 04:11:40;;;;;;;;;26.75;21.25;;;;;13.13;74.56;101756.69;4991814;28;45966;-68
2021/06/25 04:14:06;;;;;;;;;30.50;26.25;;;;;13.14;74.57;101746.91;4984091;28;45498;-64
2021/06/25 04:16:31;;;;;;;;;29.25;23.25;;;;;13.14;74.31;101754.88;4987916;28;45485;-67
2021/06/25 04:18:56;;;;;;;;;24.50;21.25;;;;;13.17;75.08;101754.56;4992990;28;45415;-68
2021/06/25 04:21:22;;;;;;;;;27.75;24.50;;;;;13.25;75.32;101767.13;4991323;28;46008;-67
2021/06/25 04:23:48;;;;;;;;;23.00;21.25;;;;;13.30;75.58;101762.25;4998493;28;45502;-68
2021/06/25 04:26:13;;;;;;;;;24.25;23.25;;;;;13.41;74.70;101758.63;4987505;28;45729;-66
2021/06/25 04:28:39;;;;;;;;;29.75;23.25;;;;;13.48;73.97;101767.72;4993181;28;45431;-68
2021/06/25 04:31:05;;;;;;;;;23.50;22.50;;;;;13.54;73.40;101762.63;4991580;28;46074;-67
2021/06/25 04:33:30;;;;;;;;;29.00;21.50;;;;;13.60;73.93;101763.03;4991594;28;45450;-68
2021/06/25 04:35:56;;;;;;;;;24.75;22.00;;;;;13.71;75.11;101766.38;4995189;28;45652;-67
2021/06/25 04:38:22;;;;;;;;;27.75;24.25;;;;;13.80;73.69;101759.34;4991404;28;45849;-64
2021/06/25 04:40:47;;;;;;;;;25.50;22.25;;;;;13.85;73.19;101756.28;4990917;28;46067;-63
2021/06/25 04:43:15;;;;;;;;;25.00;23.00;;;;;13.89;72.53;101757.63;4994508;28;45218;-67
2021/06/25 04:45:42;;;;;;;;;25.75;22.00;;;;;13.92;72.75;101763.50;4985263;28;45533;-65
2021/06/25 04:48:11;;;;;;;;;26.50;23.25;;;;;13.97;72.63;101773.66;4985830;28;45344;-69
2021/06/25 04:50:38;;;;;;;;;26.25;23.00;;;;;14.05;72.95;101760.50;4988618;28;45446;-68
2021/06/25 04:53:03;;;;;;;;;27.50;22.25;;;;;14.13;72.70;101765.09;4990152;28;45861;-65
2021/06/25 04:55:29;;;;;;;;;24.50;23.00;;;;;14.23;73.46;101754.41;4986706;28;45509;-64
2021/06/25 04:57:55;;;;;;;;;28.25;24.00;;;;;14.33;72.07;101752.53;4992305;28;46000;-66
2021/06/25 05:00:23;;;;;;;;;28.25;25.00;;;;;14.40;71.90;101762.41;4996217;28;45612;-64
2021/06/25 05:02:49;;;;;;;;;26.00;23.00;;;;;14.47;71.45;101757.34;4989657;28;45557;-64
2021/06/25 05:05:15;;;;;;;;;23.25;20.75;;;;;14.55;70.85;101754.78;4991594;28;45371;-68
2021/06/25 05:07:42;;;;;;;;;29.50;23.75;;;;;14.59;70.36;101761.50;4986703;28;45866;-67
2021/06/25 05:10:08;;;;;;;;;29.75;25.25;;;;;14.65;70.96;101760.03;4989495;28;45478;-69
2021/06/25 05:12:34;;;;;;;;;28.00;22.25;;;;;14.70;71.13;101757.75;4991215;28;45470;-66
2021/06/25 05:14:59;;;;;;;;;26.00;23.25;;;;;14.75;70.97;101758.13;4987270;28;45489;-67
2021/06/25 05:17:28;;;;;;;;;29.50;24.00;;;;;14.77;69.99;101758.00;4998394;28;45483;-65
2021/06/25 05:19:53;;;;;;;;;26.25;24.75;;;;;14.74;69.98;101760.97;4995510;28;46496;-68
2021/06/25 05:22:19;;;;;;;;;28.25;24.00;;;;;14.76;70.14;101772.28;4993337;28;45548;-67
2021/06/25 05:24:44;;;;;;;;;31.75;28.00;;;;;14.78;70.08;101771.13;4989963;28;45497;-63
2021/06/25 05:27:10;;;;;;;;;29.25;25.25;;;;;14.79;69.92;101767.50;4991471;28;45537;-65
2021/06/25 05:29:35;;;;;;;;;28.00;24.00;;;;;14.80;70.06;101768.34;4990082;28;46198;-67
2021/06/25 05:32:01;;;;;;;;;27.75;25.75;;;;;14.81;69.90;101765.53;4995752;28;45433;-68
2021/06/25 05:34:27;;;;;;;;;31.25;23.00;;;;;14.85;70.23;101766.06;4996916;28;45454;-64
2021/06/25 05:36:54;;;;;;;;;32.75;29.00;;;;;14.89;69.78;101761.28;4996338;28;45547;-67
2021/06/25 05:39:19;;;;;;;;;27.75;26.00;;;;;14.93;70.19;101774.09;4984997;28;46353;-65
2021/06/25 05:41:45;;;;;;;;;24.75;22.50;;;;;14.96;69.62;101767.63;4987000;28;45458;-65
2021/06/25 05:44:10;;;;;;;;;31.75;26.75;;;;;14.99;69.99;101764.69;4998172;28;45576;-67
2021/06/25 05:46:35;;;;;;;;;29.50;24.50;;;;;15.05;70.23;101766.72;4994205;28;45397;-69
2021/06/25 05:49:01;;;;;;;;;30.00;24.25;;;;;15.10;69.45;101767.09;4990441;28;46148;-68
2021/06/25 05:51:26;;;;;;;;;29.00;24.75;;;;;15.15;69.18;101772.78;4991245;28;45631;-64
2021/06/25 05:53:52;;;;;;;;;33.25;26.25;;;;;15.17;69.18;101765.50;5003990;28;45502;-66
2021/06/25 05:56:17;;;;;;;;;31.25;27.75;;;;;15.21;69.05;101774.84;4988290;28;45565;-66
2021/06/25 05:58:42;;;;;;;;;31.75;28.00;;;;;15.24;69.07;101768.38;4993281;28;45517;-63
2021/06/25 06:01:08;;;;;;;;;29.25;25.50;;;;;15.30;69.05;101772.25;4995959;28;45449;-63
2021/06/25 06:03:33;;;;;;;;;27.75;23.25;;;;;15.32;68.50;101772.94;4996167;28;45899;-65
2021/06/25 06:05:58;;;;;;;;;33.00;26.50;;;;;15.32;68.40;101770.25;5001505;28;49319;-63
2021/06/25 06:08:24;;;;;;;;;31.25;26.50;;;;;15.34;68.98;101771.78;4999994;28;45425;-65
2021/06/25 06:10:49;;;;;;;;;30.00;23.75;;;;;15.40;68.97;101778.31;5000138;28;45449;-65
2021/06/25 06:13:15;;;;;;;;;25.75;22.75;;;;;15.47;68.65;101771.38;5012588;28;45410;-65
2021/06/25 06:15:40;;;;;;;;;25.75;23.25;;;;;15.54;68.88;101769.75;4992828;28;45545;-67
2021/06/25 06:18:06;;;;;;;;;31.50;24.75;;;;;15.61;68.23;101770.78;4991578;28;46248;-67
2021/06/25 06:20:32;;;;;;;;;24.25;23.75;;;;;15.64;67.87;101765.16;5002582;28;45433;-62
2021/06/25 06:33:54;;;;;;;;;27.00;24.50;;;;;16.21;66.69;101759.28;4992554;28;45477;-65
2021/06/25 06:36:34;;;;;;;;;25.50;24.00;;;;;16.30;66.89;101760.16;4977618;28;45578;-71
2021/06/25 06:39:04;;;;;;;;;29.25;24.50;;;;;16.43;64.36;101757.00;4984224;28;47031;-67
2021/06/25 06:41:30;;;;;;;;;27.75;25.00;;;;;16.46;65.53;101752.16;4983364;28;45410;-68
2021/06/25 06:43:56;;;;;;;;;28.50;23.75;;;;;16.53;64.99;101747.03;4989365;28;46056;-67
2021/06/25 06:46:22;;;;;;;;;30.25;25.25;;;;;16.58;65.28;101743.88;4982526;28;45782;-70
2021/06/25 06:48:48;;;;;;;;;27.25;24.50;;;;;16.70;64.69;101753.22;4988197;28;47078;-70
2021/06/25 06:51:17;;;;;;;;;28.25;26.50;;;;;16.80;64.29;101750.44;4996537;28;45941;-67
2021/06/25 06:53:43;;;;;;;;;23.00;20.50;;;;;16.94;62.08;101749.78;4985613;28;45668;-70
2021/06/25 06:56:11;;;;;;;;;33.25;25.50;;;;;17.04;62.89;101744.28;4979661;28;45693;-68
2021/06/25 06:58:37;;;;;;;;;22.75;22.00;;;;;17.24;63.47;101750.09;4982391;28;45472;-72
2021/06/25 07:01:03;;;;;;;;;32.50;24.50;;;;;17.52;63.03;101742.53;4986064;28;45522;-66
2021/06/25 07:03:28;;;;;;;;;26.00;22.25;;;;;17.74;61.79;101741.81;4983544;28;47469;-67
2021/06/25 07:05:53;;;;;;;;;22.75;20.00;;;;;17.95;61.32;101743.09;4986481;28;45483;-67
2021/06/25 07:08:19;;;;;;;;;30.00;25.00;;;;;18.14;62.15;101741.84;4981540;28;45486;-67
2021/06/25 07:10:45;;;;;;;;;30.00;24.75;;;;;18.32;60.65;101741.56;4988775;28;45762;-69
2021/06/25 07:13:10;;;;;;;;;28.50;25.00;;;;;18.32;60.06;101747.75;4987142;28;45685;-66
2021/06/25 07:15:36;;;;;;;;;27.50;24.50;;;;;18.36;61.40;101746.41;4987959;28;45529;-65
2021/06/25 07:18:02;;;;;;;;;27.25;23.50;;;;;18.47;58.75;101753.19;5006865;28;45775;-65
2021/06/25 07:20:28;;;;;;;;;33.25;27.00;;;;;18.49;59.51;101743.13;4985983;28;45931;-66
2021/06/25 07:22:53;;;;;;;;;28.25;25.00;;;;;18.62;60.39;101748.75;4983911;28;45510;-66
2021/06/25 07:25:18;;;;;;;;;29.00;25.00;;;;;18.90;60.67;101749.06;4992374;28;45438;-67
2021/06/25 07:27:44;;;;;;;;;16.25;13.75;;;;;19.28;60.14;101742.88;4981505;28;46061;-69
2021/06/25 07:30:11;;;;;;;;;31.25;22.50;;;;;19.68;59.52;101746.19;5003684;28;45682;-67
2021/06/25 07:32:36;;;;;;;;;21.50;20.75;;;;;20.03;55.35;101744.59;4981416;28;45477;-66
2021/06/25 07:35:03;;;;;;;;;26.00;21.25;;;;;20.21;57.13;101738.81;4989277;28;45941;-65
2021/06/25 07:37:28;;;;;;;;;24.50;21.25;;;;;20.37;56.38;101729.69;4985761;28;46363;-70
2021/06/25 07:39:54;;;;;;;;;23.50;20.25;;;;;20.57;49.74;101729.94;4981983;28;45592;-67
2021/06/25 07:42:21;;;;;;;;;23.75;21.25;;;;;20.60;53.11;101726.88;4985200;28;46144;-65
2021/06/25 07:44:49;;;;;;;;;25.25;23.25;;;;;20.82;53.71;101728.53;4986174;28;45452;-68
2021/06/25 07:47:14;;;;;;;;;23.75;22.00;;;;;21.19;53.72;101726.56;4973921;28;48252;-69
2021/06/25 07:49:39;;;;;;;;;24.25;20.50;;;;;21.51;51.29;101724.31;4991036;28;45401;-68
2021/06/25 07:52:05;;;;;;;;;24.25;19.50;;;;;21.80;46.74;101715.16;4990242;28;45463;-67
2021/06/25 07:54:30;;;;;;;;;24.50;20.50;;;;;22.07;51.34;101712.56;4990815;28;45529;-66
2021/06/25 07:56:56;;;;;;;;;24.50;19.50;;;;;22.60;48.96;101710.03;4975705;28;47272;-64
2021/06/25 07:59:21;;;;;;;;;21.50;18.25;;;;;22.93;46.65;101712.75;4986671;28;45417;-68
2021/06/25 08:01:46;;;;;;;;;21.00;20.25;;;;;23.20;48.00;101715.47;4989661;28;45521;-63
2021/06/25 08:04:12;;;;;;;;;21.75;19.50;;;;;23.54;43.72;101713.50;4990011;28;45496;-63
2021/06/25 08:06:37;;;;;;;;;22.75;20.00;;;;;23.68;46.80;101700.81;4999307;28;46071;-68
2021/06/25 08:09:04;;;;;;;;;21.50;21.00;;;;;23.78;46.03;101704.72;4984543;28;45467;-67
2021/06/25 08:11:30;;;;;;;;;20.25;19.50;;;;;24.23;46.36;101706.59;4975157;28;45510;-67
2021/06/25 08:13:56;;;;;;;;;20.00;19.00;;;;;24.58;43.55;101701.63;4984210;28;45483;-67
2021/06/25 08:16:22;;;;;;;;;23.50;21.00;;;;;24.91;45.26;101695.13;4985504;28;45696;-67
2021/06/25 08:18:47;;;;;;;;;20.75;19.50;;;;;26.66;43.52;101700.97;4982090;28;47071;-63
2021/06/25 08:21:12;;;;;;;;;15.50;13.25;;;;;28.15;39.71;101696.91;4978436;28;45892;-66
2021/06/25 08:23:38;;;;;;;;;18.00;15.50;;;;;28.49;38.18;101695.09;4987510;28;45491;-67
2021/06/25 08:26:03;;;;;;;;;27.00;17.00;;;;;28.21;40.27;101695.91;4981657;28;46085;-66
2021/06/25 08:28:29;;;;;;;;;19.00;16.50;;;;;28.30;38.32;101697.16;4987346;28;45561;-67
2021/06/25 08:30:54;;;;;;;;;17.75;17.25;;;;;28.67;38.44;101700.28;4983694;28;45670;-66
2021/06/25 08:33:19;;;;;;;;;23.50;20.75;;;;;29.85;37.43;101698.38;4991302;28;45473;-66
2021/06/25 08:35:45;;;;;;;;;18.75;17.75;;;;;31.99;32.11;101695.56;4981223;28;47225;-66
2021/06/25 08:38:10;;;;;;;;;16.75;16.00;;;;;34.02;33.69;101693.53;4976502;28;45509;-66
2021/06/25 08:40:36;;;;;;;;;18.25;16.25;;;;;36.30;31.13;101691.59;4985673;28;45659;-66
2021/06/25 08:43:01;;;;;;;;;16.00;13.75;;;;;37.42;27.93;101689.53;4979151;28;45696;-68
2021/06/25 08:45:28;;;;;;;;;24.00;20.75;;;;;38.15;28.29;101689.56;4983605;28;45377;-63
2021/06/25 08:47:54;;;;;;;;;19.50;17.50;;;;;38.90;25.04;101692.66;4974487;28;45667;-69
2021/06/25 08:50:23;;;;;;;;;15.25;14.25;;;;;38.11;27.63;101684.97;4985447;28;45528;-66
2021/06/25 08:52:51;;;;;;;;;17.25;16.25;;;;;36.85;27.62;101686.25;4986995;28;45466;-67
2021/06/25 08:55:18;;;;;;;;;17.25;16.50;;;;;35.73;28.87;101681.44;4992646;28;46239;-70
2021/06/25 08:57:43;;;;;;;;;19.00;17.25;;;;;34.64;24.25;101677.44;4987016;28;45568;-63
2021/06/25 09:00:14;;;;;;;;;16.25;14.75;;;;;33.13;29.06;101666.00;4990402;28;45512;-63
2021/06/25 09:02:40;;;;;;;;;22.50;20.50;;;;;31.49;31.13;101679.53;5008122;28;45489;-64
2021/06/25 09:05:28;;;;;;;;;16.00;16.00;;;;;29.27;31.84;101676.16;4995807;28;46433;-68
2021/06/25 09:07:55;;;;;;;;;15.00;12.75;;;;;27.98;33.46;101684.09;4992598;28;45602;-67
2021/06/25 09:10:35;;;;;;;;;17.50;14.00;;;;;27.29;36.03;101672.34;4988433;28;45549;-66
2021/06/25 09:13:10;;;;;;;;;19.00;17.75;;;;;26.99;36.88;101667.84;4991309;28;45748;-63
2021/06/25 09:15:37;;;;;;;;;19.25;16.00;;;;;26.83;37.21;101668.53;4992974;28;46331;-67
2021/06/25 09:18:04;;;;;;;;;12.75;12.50;;;;;26.29;37.25;101663.16;4979352;28;45918;-66
2021/06/25 09:20:40;;;;;;;;;22.50;19.50;;;;;25.79;37.42;101666.09;4984577;28;45458;-69
2021/06/25 09:23:15;;;;;;;;;19.75;16.00;;;;;25.55;38.10;101662.47;4986414;28;45957;-68
2021/06/25 09:25:57;;;;;;;;;20.00;16.25;;;;;25.62;39.62;101658.63;4990530;28;46574;-64
2021/06/25 09:28:36;;;;;;;;;20.75;17.25;;;;;25.92;39.16;101655.16;4989419;28;45652;-67
2021/06/25 09:31:11;;;;;;;;;19.75;19.25;;;;;26.08;38.83;101659.88;4990036;28;45516;-66
2021/06/25 09:33:48;;;;;;;;;17.25;14.50;;;;;26.17;38.03;101655.81;4989964;28;45562;-70
2021/06/25 09:36:31;;;;;;;;;16.50;15.50;;;;;26.28;38.55;101650.66;4978340;28;46001;-66
2021/06/25 09:39:02;;;;;;;;;22.25;18.00;;;;;26.30;38.52;101643.94;4985207;28;45516;-67
2021/06/25 09:41:28;;;;;;;;;17.50;16.75;;;;;26.19;38.05;101650.16;4981532;28;45675;-67
2021/06/25 09:44:04;;;;;;;;;17.00;15.75;;;;;26.34;40.41;101645.13;4988073;28;45553;-69
2021/06/25 09:46:31;;;;;;;;;19.00;17.00;;;;;26.64;39.89;101654.28;4989303;28;46390;-67
2021/06/25 09:49:17;;;;;;;;;16.50;16.50;;;;;26.72;40.08;101651.22;4986327;28;45667;-65
2021/06/25 09:51:56;;;;;;;;;17.50;15.00;;;;;26.80;39.12;101649.00;4986159;28;45509;-67
2021/06/25 09:54:22;;;;;;;;;18.00;13.25;;;;;26.93;39.67;101641.66;4981685;28;45518;-69
2021/06/25 09:56:54;;;;;;;;;20.00;18.00;;;;;27.01;39.46;101642.13;5002453;28;48167;-65
2021/06/25 10:01:53;;;;;;;;;16.75;16.00;;;;;27.30;38.84;101636.84;4983206;28;45842;-68
2021/06/25 10:04:36;;;;;;;;;19.00;18.00;;;;;27.44;37.58;101629.22;4988839;28;45670;-71
2021/06/25 10:07:19;;;;;;;;;20.25;15.75;;;;;27.45;38.41;101620.84;4975687;28;47193;-68
2021/06/25 10:09:48;;;;;;;;;18.00;15.00;;;;;27.71;38.08;101625.97;4978259;28;45498;-71
2021/06/25 10:12:16;;;;;;;;;16.00;12.75;;;;;28.16;38.21;101628.69;4980664;28;45930;-73
2021/06/25 10:14:43;;;;;;;;;11.25;11.25;;;;;28.80;38.51;101628.38;4979494;28;45574;-66
2021/06/25 10:17:09;;;;;;;;;17.00;15.25;;;;;29.49;37.17;101630.69;4977303;28;45824;-66
2021/06/25 10:19:41;;;;;;;;;13.75;12.00;;;;;29.86;35.81;101623.75;4998764;28;45591;-68
2021/06/25 10:22:10;;;;;;;;;13.50;12.00;;;;;30.18;36.07;101624.59;4986297;28;45565;-71
2021/06/25 10:24:38;;;;;;;;;20.50;13.25;;;;;30.29;34.20;101627.44;4989985;28;45739;-65
2021/06/25 10:27:05;;;;;;;;;14.75;13.50;;;;;30.16;35.53;101623.22;4979396;28;45930;-66
2021/06/25 10:29:35;;;;;;;;;13.25;13.00;;;;;29.89;33.19;101613.16;4984313;28;46016;-68
2021/06/25 10:32:02;;;;;;;;;15.00;14.00;;;;;29.51;32.61;101612.19;4993068;28;45635;-69
2021/06/25 10:34:33;;;;;;;;;14.50;11.75;;;;;29.85;33.07;101612.06;4989886;28;45526;-67
2021/06/25 10:37:02;;;;;;;;;13.75;13.50;;;;;30.20;34.58;101608.81;4986100;28;47148;-66
2021/06/25 10:39:31;;;;;;;;;14.00;13.00;;;;;30.96;32.63;101612.38;4986071;28;45486;-66
2021/06/25 10:41:58;;;;;;;;;13.00;12.00;;;;;31.91;34.39;101607.50;4986033;28;45899;-65
2021/06/25 10:44:30;;;;;;;;;12.00;12.00;;;;;32.98;31.49;101600.31;4990760;28;45530;-70
2021/06/25 10:46:55;;;;;;;;;13.75;13.25;;;;;32.81;30.50;101600.63;4984166;28;46257;-71
2021/06/25 10:49:20;;;;;;;;;12.75;9.75;;;;;32.47;31.88;101605.88;4981408;28;45806;-66
2021/06/25 10:51:46;;;;;;;;;9.50;9.50;;;;;32.33;32.28;101600.16;4989676;28;45558;-68
2021/06/25 10:54:16;;;;;;;;;10.75;10.00;;;;;32.34;31.85;101596.31;4984176;28;45557;-64
2021/06/25 10:56:48;;;;;;;;;11.25;11.00;;;;;32.22;30.41;101593.91;4989045;28;46927;-66
2021/06/25 10:59:41;;;;;;;;;16.50;13.50;;;;;31.79;32.16;101596.00;4979870;28;45515;-69
2021/06/25 11:02:07;;;;;;;;;15.00;14.50;;;;;31.40;29.65;101601.94;4980974;28;45660;-67
2021/06/25 11:04:34;;;;;;;;;11.00;11.00;;;;;30.80;33.41;101595.88;4980881;28;45744;-65
2021/06/25 11:07:03;;;;;;;;;15.00;13.50;;;;;30.47;34.48;101601.69;4990145;28;46237;-67
2021/06/25 11:09:56;;;;;;;;;9.25;8.75;;;;;30.21;35.04;101593.28;4981037;28;45601;-66
2021/06/25 11:12:26;;;;;;;;;12.50;11.00;;;;;30.04;35.62;101590.69;4977672;28;45856;-62
2021/06/25 11:14:55;;;;;;;;;14.50;11.00;;;;;29.91;35.86;101593.84;4978197;28;45537;-66
2021/06/25 11:17:53;;;;;;;;;14.00;14.00;;;;;29.71;35.33;101598.00;4985870;28;45518;-67
2021/06/25 11:20:23;;;;;;;;;13.25;12.25;;;;;29.48;35.62;101595.56;4984004;28;45486;-64
2021/06/25 11:23:22;;;;;;;;;12.25;11.75;;;;;29.33;34.79;101599.75;4985112;28;45418;-67